sensor_id;sensor_type;location;lat;lon;timestamp;P1;durP1;ratioP1;P2;durP2;ratioP2
19171;SDS011;9718;52.200;21.052;2023-03-11T00:00:14;28.53;;;12.87;;
19171;SDS011;9718;52.200;21.052;2023-03-11T00:03:04;25.57;;;13.20;;
19171;SDS011;9718;52.200;21.052;2023-03-11T00:05:34;24.07;;;12.87;;
19171;SDS011;9718;52.200;21.052;2023-03-11T00:08:04;24.93;;;12.93;;
19171;SDS011;9718;52.200;21.052;2023-03-11T00:10:39;30.07;;;13.10;;
19171;SDS011;9718;52.200;21.052;2023-03-11T00:13:08;26.87;;;12.27;;
19171;SDS011;9718;52.200;21.052;2023-03-11T00:15:37;25.70;;;12.73;;
19171;SDS011;9718;52.200;21.052;2023-03-11T00:18:04;23.67;;;12.17;;
19171;SDS011;9718;52.200;21.052;2023-03-11T00:20:36;24.23;;;12.30;;
19171;SDS011;9718;52.200;21.052;2023-03-11T00:23:06;27.97;;;13.23;;
19171;SDS011;9718;52.200;21.052;2023-03-11T00:25:35;23.13;;;12.90;;
19171;SDS011;9718;52.200;21.052;2023-03-11T00:28:04;24.23;;;13.17;;
19171;SDS011;9718;52.200;21.052;2023-03-11T00:30:37;24.07;;;13.27;;
19171;SDS011;9718;52.200;21.052;2023-03-11T00:33:05;23.43;;;12.10;;
19171;SDS011;9718;52.200;21.052;2023-03-11T00:35:34;23.60;;;12.00;;
19171;SDS011;9718;52.200;21.052;2023-03-11T00:38:02;26.57;;;12.07;;
19171;SDS011;9718;52.200;21.052;2023-03-11T00:40:32;25.37;;;12.60;;
19171;SDS011;9718;52.200;21.052;2023-03-11T00:43:00;21.77;;;11.53;;
19171;SDS011;9718;52.200;21.052;2023-03-11T00:45:28;26.17;;;12.17;;
19171;SDS011;9718;52.200;21.052;2023-03-11T00:47:56;28.17;;;11.50;;
19171;SDS011;9718;52.200;21.052;2023-03-11T00:50:25;26.30;;;11.73;;
19171;SDS011;9718;52.200;21.052;2023-03-11T00:52:55;21.57;;;11.90;;
19171;SDS011;9718;52.200;21.052;2023-03-11T00:55:24;23.77;;;11.67;;
19171;SDS011;9718;52.200;21.052;2023-03-11T00:57:53;21.90;;;11.47;;
19171;SDS011;9718;52.200;21.052;2023-03-11T01:00:26;23.10;;;11.90;;
19171;SDS011;9718;52.200;21.052;2023-03-11T01:02:54;21.43;;;11.43;;
19171;SDS011;9718;52.200;21.052;2023-03-11T01:05:24;20.23;;;10.97;;
19171;SDS011;9718;52.200;21.052;2023-03-11T01:07:53;22.27;;;10.73;;
19171;SDS011;9718;52.200;21.052;2023-03-11T01:10:20;22.90;;;11.70;;
19171;SDS011;9718;52.200;21.052;2023-03-11T01:12:48;22.20;;;10.77;;
19171;SDS011;9718;52.200;21.052;2023-03-11T01:15:20;19.87;;;11.30;;
19171;SDS011;9718;52.200;21.052;2023-03-11T01:17:52;25.30;;;12.13;;
19171;SDS011;9718;52.200;21.052;2023-03-11T01:20:19;21.60;;;10.50;;
19171;SDS011;9718;52.200;21.052;2023-03-11T01:22:47;22.10;;;10.90;;
19171;SDS011;9718;52.200;21.052;2023-03-11T01:25:15;20.23;;;9.93;;
19171;SDS011;9718;52.200;21.052;2023-03-11T01:27:44;20.10;;;10.77;;
19171;SDS011;9718;52.200;21.052;2023-03-11T01:30:19;24.33;;;10.93;;
19171;SDS011;9718;52.200;21.052;2023-03-11T01:32:48;25.10;;;10.40;;
19171;SDS011;9718;52.200;21.052;2023-03-11T01:35:17;19.20;;;10.80;;
19171;SDS011;9718;52.200;21.052;2023-03-11T01:37:45;22.53;;;9.93;;
19171;SDS011;9718;52.200;21.052;2023-03-11T01:40:17;19.00;;;10.13;;
19171;SDS011;9718;52.200;21.052;2023-03-11T01:42:45;22.60;;;10.10;;
19171;SDS011;9718;52.200;21.052;2023-03-11T01:48:08;22.30;;;10.83;;
19171;SDS011;9718;52.200;21.052;2023-03-11T01:50:37;25.83;;;10.80;;
19171;SDS011;9718;52.200;21.052;2023-03-11T01:53:07;23.77;;;10.53;;
19171;SDS011;9718;52.200;21.052;2023-03-11T01:55:36;24.30;;;10.33;;
19171;SDS011;9718;52.200;21.052;2023-03-11T01:58:05;23.13;;;10.83;;
19171;SDS011;9718;52.200;21.052;2023-03-11T02:00:35;21.93;;;9.90;;
19171;SDS011;9718;52.200;21.052;2023-03-11T02:03:06;18.07;;;9.73;;
19171;SDS011;9718;52.200;21.052;2023-03-11T02:05:40;21.57;;;10.07;;
19171;SDS011;9718;52.200;21.052;2023-03-11T02:08:07;23.53;;;11.67;;
19171;SDS011;9718;52.200;21.052;2023-03-11T02:10:36;21.83;;;10.83;;
19171;SDS011;9718;52.200;21.052;2023-03-11T02:13:06;20.83;;;11.20;;
19171;SDS011;9718;52.200;21.052;2023-03-11T02:15:33;21.27;;;9.57;;
19171;SDS011;9718;52.200;21.052;2023-03-11T02:18:02;19.07;;;10.17;;
19171;SDS011;9718;52.200;21.052;2023-03-11T02:20:35;20.60;;;9.97;;
19171;SDS011;9718;52.200;21.052;2023-03-11T02:23:12;21.70;;;10.47;;
19171;SDS011;9718;52.200;21.052;2023-03-11T02:25:43;23.00;;;11.03;;
19171;SDS011;9718;52.200;21.052;2023-03-11T02:28:18;19.90;;;10.23;;
19171;SDS011;9718;52.200;21.052;2023-03-11T02:30:46;24.23;;;10.50;;
19171;SDS011;9718;52.200;21.052;2023-03-11T02:33:14;21.70;;;11.53;;
19171;SDS011;9718;52.200;21.052;2023-03-11T02:35:43;23.50;;;11.40;;
19171;SDS011;9718;52.200;21.052;2023-03-11T02:38:11;22.40;;;11.93;;
19171;SDS011;9718;52.200;21.052;2023-03-11T02:43:17;20.17;;;10.97;;
19171;SDS011;9718;52.200;21.052;2023-03-11T02:45:48;18.57;;;10.77;;
19171;SDS011;9718;52.200;21.052;2023-03-11T02:48:15;25.77;;;11.10;;
19171;SDS011;9718;52.200;21.052;2023-03-11T02:50:44;20.90;;;9.03;;
19171;SDS011;9718;52.200;21.052;2023-03-11T02:53:12;22.83;;;10.47;;
19171;SDS011;9718;52.200;21.052;2023-03-11T02:55:39;21.10;;;10.30;;
19171;SDS011;9718;52.200;21.052;2023-03-11T02:58:06;19.17;;;8.90;;
19171;SDS011;9718;52.200;21.052;2023-03-11T03:00:34;19.33;;;11.40;;
19171;SDS011;9718;52.200;21.052;2023-03-11T03:03:01;22.33;;;15.03;;
19171;SDS011;9718;52.200;21.052;2023-03-11T03:05:28;21.43;;;14.27;;
19171;SDS011;9718;52.200;21.052;2023-03-11T03:07:55;17.73;;;13.40;;
19171;SDS011;9718;52.200;21.052;2023-03-11T03:10:23;22.23;;;15.47;;
19171;SDS011;9718;52.200;21.052;2023-03-11T03:12:50;17.67;;;9.17;;
19171;SDS011;9718;52.200;21.052;2023-03-11T03:15:17;16.20;;;9.30;;
19171;SDS011;9718;52.200;21.052;2023-03-11T03:17:44;16.30;;;8.50;;
19171;SDS011;9718;52.200;21.052;2023-03-11T03:20:13;19.07;;;9.27;;
19171;SDS011;9718;52.200;21.052;2023-03-11T03:22:40;13.23;;;8.30;;
19171;SDS011;9718;52.200;21.052;2023-03-11T03:25:09;17.50;;;8.60;;
19171;SDS011;9718;52.200;21.052;2023-03-11T03:27:36;16.63;;;9.03;;
19171;SDS011;9718;52.200;21.052;2023-03-11T03:30:04;17.20;;;8.43;;
19171;SDS011;9718;52.200;21.052;2023-03-11T03:32:32;13.80;;;7.77;;
19171;SDS011;9718;52.200;21.052;2023-03-11T03:35:00;17.67;;;7.97;;
19171;SDS011;9718;52.200;21.052;2023-03-11T03:37:31;15.80;;;7.57;;
19171;SDS011;9718;52.200;21.052;2023-03-11T03:39:59;15.10;;;8.03;;
19171;SDS011;9718;52.200;21.052;2023-03-11T03:42:26;14.60;;;7.80;;
19171;SDS011;9718;52.200;21.052;2023-03-11T03:44:54;15.40;;;7.70;;
19171;SDS011;9718;52.200;21.052;2023-03-11T03:47:21;15.03;;;7.53;;
19171;SDS011;9718;52.200;21.052;2023-03-11T03:49:48;20.23;;;7.90;;
19171;SDS011;9718;52.200;21.052;2023-03-11T03:52:15;16.00;;;7.00;;
19171;SDS011;9718;52.200;21.052;2023-03-11T03:54:42;15.93;;;7.37;;
19171;SDS011;9718;52.200;21.052;2023-03-11T03:57:10;20.13;;;7.00;;
19171;SDS011;9718;52.200;21.052;2023-03-11T03:59:37;17.13;;;7.23;;
19171;SDS011;9718;52.200;21.052;2023-03-11T04:02:04;13.27;;;7.40;;
19171;SDS011;9718;52.200;21.052;2023-03-11T04:04:31;15.87;;;7.73;;
19171;SDS011;9718;52.200;21.052;2023-03-11T04:06:58;14.73;;;8.23;;
19171;SDS011;9718;52.200;21.052;2023-03-11T04:09:26;19.37;;;8.43;;
19171;SDS011;9718;52.200;21.052;2023-03-11T04:11:53;15.13;;;8.07;;
19171;SDS011;9718;52.200;21.052;2023-03-11T04:14:20;15.37;;;7.73;;
19171;SDS011;9718;52.200;21.052;2023-03-11T04:16:47;19.60;;;7.67;;
19171;SDS011;9718;52.200;21.052;2023-03-11T04:19:14;19.97;;;8.97;;
19171;SDS011;9718;52.200;21.052;2023-03-11T04:21:41;16.60;;;8.00;;
19171;SDS011;9718;52.200;21.052;2023-03-11T04:24:09;19.43;;;9.17;;
19171;SDS011;9718;52.200;21.052;2023-03-11T04:26:36;21.03;;;9.30;;
19171;SDS011;9718;52.200;21.052;2023-03-11T04:29:03;18.07;;;9.00;;
19171;SDS011;9718;52.200;21.052;2023-03-11T04:31:30;20.10;;;9.43;;
19171;SDS011;9718;52.200;21.052;2023-03-11T04:33:57;16.80;;;8.90;;
19171;SDS011;9718;52.200;21.052;2023-03-11T04:36:24;15.13;;;7.73;;
19171;SDS011;9718;52.200;21.052;2023-03-11T04:38:51;16.87;;;8.93;;
19171;SDS011;9718;52.200;21.052;2023-03-11T04:41:22;20.60;;;8.87;;
19171;SDS011;9718;52.200;21.052;2023-03-11T04:43:49;15.00;;;7.90;;
19171;SDS011;9718;52.200;21.052;2023-03-11T04:46:16;19.27;;;8.77;;
19171;SDS011;9718;52.200;21.052;2023-03-11T04:48:44;18.40;;;9.00;;
19171;SDS011;9718;52.200;21.052;2023-03-11T04:51:11;15.87;;;8.13;;
19171;SDS011;9718;52.200;21.052;2023-03-11T04:53:38;15.50;;;8.67;;
19171;SDS011;9718;52.200;21.052;2023-03-11T04:56:05;17.47;;;8.77;;
19171;SDS011;9718;52.200;21.052;2023-03-11T04:58:32;19.67;;;9.50;;
19171;SDS011;9718;52.200;21.052;2023-03-11T05:00:59;18.30;;;9.47;;
19171;SDS011;9718;52.200;21.052;2023-03-11T05:03:27;25.83;;;11.27;;
19171;SDS011;9718;52.200;21.052;2023-03-11T05:05:54;19.60;;;10.60;;
19171;SDS011;9718;52.200;21.052;2023-03-11T05:08:25;20.20;;;10.23;;
19171;SDS011;9718;52.200;21.052;2023-03-11T05:10:52;21.80;;;9.57;;
19171;SDS011;9718;52.200;21.052;2023-03-11T05:13:20;18.73;;;10.23;;
19171;SDS011;9718;52.200;21.052;2023-03-11T05:15:47;20.17;;;10.00;;
19171;SDS011;9718;52.200;21.052;2023-03-11T05:18:14;18.97;;;9.63;;
19171;SDS011;9718;52.200;21.052;2023-03-11T05:20:42;19.87;;;9.23;;
19171;SDS011;9718;52.200;21.052;2023-03-11T05:23:12;17.20;;;9.40;;
19171;SDS011;9718;52.200;21.052;2023-03-11T05:25:39;16.93;;;9.47;;
19171;SDS011;9718;52.200;21.052;2023-03-11T05:28:06;21.47;;;10.17;;
19171;SDS011;9718;52.200;21.052;2023-03-11T05:30:33;18.20;;;8.63;;
19171;SDS011;9718;52.200;21.052;2023-03-11T05:33:00;22.37;;;8.80;;
19171;SDS011;9718;52.200;21.052;2023-03-11T05:35:27;20.07;;;8.10;;
19171;SDS011;9718;52.200;21.052;2023-03-11T05:37:55;18.53;;;9.03;;
19171;SDS011;9718;52.200;21.052;2023-03-11T05:40:22;16.27;;;7.90;;
19171;SDS011;9718;52.200;21.052;2023-03-11T05:42:49;18.33;;;8.50;;
19171;SDS011;9718;52.200;21.052;2023-03-11T05:45:17;18.17;;;8.30;;
19171;SDS011;9718;52.200;21.052;2023-03-11T05:47:44;16.53;;;8.10;;
19171;SDS011;9718;52.200;21.052;2023-03-11T05:50:11;17.03;;;8.17;;
19171;SDS011;9718;52.200;21.052;2023-03-11T05:52:39;20.13;;;7.97;;
19171;SDS011;9718;52.200;21.052;2023-03-11T05:55:06;16.30;;;7.77;;
19171;SDS011;9718;52.200;21.052;2023-03-11T05:57:35;19.53;;;7.97;;
19171;SDS011;9718;52.200;21.052;2023-03-11T06:00:03;14.13;;;10.87;;
19171;SDS011;9718;52.200;21.052;2023-03-11T06:02:32;15.67;;;7.47;;
19171;SDS011;9718;52.200;21.052;2023-03-11T06:04:59;15.53;;;10.20;;
19171;SDS011;9718;52.200;21.052;2023-03-11T06:07:27;13.10;;;6.70;;
19171;SDS011;9718;52.200;21.052;2023-03-11T06:09:54;13.90;;;6.20;;
19171;SDS011;9718;52.200;21.052;2023-03-11T06:12:21;12.07;;;5.90;;
19171;SDS011;9718;52.200;21.052;2023-03-11T06:14:48;14.67;;;5.93;;
19171;SDS011;9718;52.200;21.052;2023-03-11T06:17:15;12.47;;;6.17;;
19171;SDS011;9718;52.200;21.052;2023-03-11T06:19:42;11.07;;;5.10;;
19171;SDS011;9718;52.200;21.052;2023-03-11T06:22:09;11.87;;;5.90;;
19171;SDS011;9718;52.200;21.052;2023-03-11T06:24:36;10.53;;;5.07;;
19171;SDS011;9718;52.200;21.052;2023-03-11T06:27:04;9.83;;;4.30;;
19171;SDS011;9718;52.200;21.052;2023-03-11T06:29:31;8.97;;;4.80;;
19171;SDS011;9718;52.200;21.052;2023-03-11T06:31:58;8.67;;;4.80;;
19171;SDS011;9718;52.200;21.052;2023-03-11T06:34:25;9.00;;;4.70;;
19171;SDS011;9718;52.200;21.052;2023-03-11T06:36:52;9.47;;;4.63;;
19171;SDS011;9718;52.200;21.052;2023-03-11T06:39:20;8.27;;;4.47;;
19171;SDS011;9718;52.200;21.052;2023-03-11T06:41:47;9.63;;;4.90;;
19171;SDS011;9718;52.200;21.052;2023-03-11T06:44:14;8.87;;;4.17;;
19171;SDS011;9718;52.200;21.052;2023-03-11T06:46:41;11.00;;;4.50;;
19171;SDS011;9718;52.200;21.052;2023-03-11T06:49:08;7.03;;;4.30;;
19171;SDS011;9718;52.200;21.052;2023-03-11T06:51:36;7.60;;;4.50;;
19171;SDS011;9718;52.200;21.052;2023-03-11T06:54:03;7.20;;;4.33;;
19171;SDS011;9718;52.200;21.052;2023-03-11T06:56:31;7.93;;;4.63;;
19171;SDS011;9718;52.200;21.052;2023-03-11T06:58:58;10.70;;;5.23;;
19171;SDS011;9718;52.200;21.052;2023-03-11T07:01:25;7.73;;;5.30;;
19171;SDS011;9718;52.200;21.052;2023-03-11T07:03:53;10.40;;;4.57;;
19171;SDS011;9718;52.200;21.052;2023-03-11T07:06:22;10.60;;;5.17;;
19171;SDS011;9718;52.200;21.052;2023-03-11T07:08:50;9.17;;;6.07;;
19171;SDS011;9718;52.200;21.052;2023-03-11T07:11:19;11.03;;;6.03;;
19171;SDS011;9718;52.200;21.052;2023-03-11T07:13:49;9.73;;;6.07;;
19171;SDS011;9718;52.200;21.052;2023-03-11T07:16:18;8.40;;;5.40;;
19171;SDS011;9718;52.200;21.052;2023-03-11T07:18:47;8.83;;;4.93;;
19171;SDS011;9718;52.200;21.052;2023-03-11T07:21:17;11.37;;;5.63;;
19171;SDS011;9718;52.200;21.052;2023-03-11T07:23:47;9.53;;;5.47;;
19171;SDS011;9718;52.200;21.052;2023-03-11T07:26:18;8.83;;;5.70;;
19171;SDS011;9718;52.200;21.052;2023-03-11T07:28:45;10.17;;;5.87;;
19171;SDS011;9718;52.200;21.052;2023-03-11T07:31:16;10.40;;;5.67;;
19171;SDS011;9718;52.200;21.052;2023-03-11T07:33:48;9.20;;;5.40;;
19171;SDS011;9718;52.200;21.052;2023-03-11T07:36:18;9.40;;;6.00;;
19171;SDS011;9718;52.200;21.052;2023-03-11T07:38:52;9.77;;;6.00;;
19171;SDS011;9718;52.200;21.052;2023-03-11T07:41:24;9.77;;;6.07;;
19171;SDS011;9718;52.200;21.052;2023-03-11T07:43:53;13.17;;;6.60;;
19171;SDS011;9718;52.200;21.052;2023-03-11T07:46:22;13.33;;;7.13;;
19171;SDS011;9718;52.200;21.052;2023-03-11T07:48:50;13.27;;;6.80;;
19171;SDS011;9718;52.200;21.052;2023-03-11T07:51:25;12.63;;;6.97;;
19171;SDS011;9718;52.200;21.052;2023-03-11T07:53:55;12.13;;;7.33;;
19171;SDS011;9718;52.200;21.052;2023-03-11T07:56:24;12.03;;;7.87;;
19171;SDS011;9718;52.200;21.052;2023-03-11T07:58:53;12.93;;;7.70;;
19171;SDS011;9718;52.200;21.052;2023-03-11T08:01:22;12.73;;;7.77;;
19171;SDS011;9718;52.200;21.052;2023-03-11T08:03:51;12.87;;;8.57;;
19171;SDS011;9718;52.200;21.052;2023-03-11T08:06:28;12.63;;;8.03;;
19171;SDS011;9718;52.200;21.052;2023-03-11T08:08:57;14.07;;;8.63;;
19171;SDS011;9718;52.200;21.052;2023-03-11T08:11:26;14.50;;;9.27;;
19171;SDS011;9718;52.200;21.052;2023-03-11T08:13:53;14.40;;;8.27;;
19171;SDS011;9718;52.200;21.052;2023-03-11T08:16:21;13.43;;;8.20;;
19171;SDS011;9718;52.200;21.052;2023-03-11T08:18:48;14.93;;;9.00;;
19171;SDS011;9718;52.200;21.052;2023-03-11T08:21:19;12.30;;;7.20;;
19171;SDS011;9718;52.200;21.052;2023-03-11T08:23:48;13.00;;;8.63;;
19171;SDS011;9718;52.200;21.052;2023-03-11T08:26:17;13.03;;;8.30;;
19171;SDS011;9718;52.200;21.052;2023-03-11T08:28:45;11.40;;;7.93;;
19171;SDS011;9718;52.200;21.052;2023-03-11T08:31:14;12.07;;;8.33;;
19171;SDS011;9718;52.200;21.052;2023-03-11T08:33:44;13.20;;;8.80;;
19171;SDS011;9718;52.200;21.052;2023-03-11T08:36:15;11.80;;;8.63;;
19171;SDS011;9718;52.200;21.052;2023-03-11T08:38:43;11.67;;;7.67;;
19171;SDS011;9718;52.200;21.052;2023-03-11T08:41:11;12.63;;;8.93;;
19171;SDS011;9718;52.200;21.052;2023-03-11T08:43:38;14.23;;;10.40;;
19171;SDS011;9718;52.200;21.052;2023-03-11T08:46:07;12.83;;;9.03;;
19171;SDS011;9718;52.200;21.052;2023-03-11T08:48:37;14.03;;;9.10;;
19171;SDS011;9718;52.200;21.052;2023-03-11T08:51:08;14.50;;;9.40;;
19171;SDS011;9718;52.200;21.052;2023-03-11T08:53:39;15.40;;;10.33;;
19171;SDS011;9718;52.200;21.052;2023-03-11T08:56:07;12.47;;;7.70;;
19171;SDS011;9718;52.200;21.052;2023-03-11T08:58:34;14.53;;;8.83;;
19171;SDS011;9718;52.200;21.052;2023-03-11T09:01:02;14.30;;;9.20;;
19171;SDS011;9718;52.200;21.052;2023-03-11T09:03:31;18.27;;;8.43;;
19171;SDS011;9718;52.200;21.052;2023-03-11T09:06:00;17.67;;;10.80;;
19171;SDS011;9718;52.200;21.052;2023-03-11T09:08:29;14.33;;;8.87;;
19171;SDS011;9718;52.200;21.052;2023-03-11T09:10:57;13.00;;;8.80;;
19171;SDS011;9718;52.200;21.052;2023-03-11T09:13:24;17.00;;;11.93;;
19171;SDS011;9718;52.200;21.052;2023-03-11T09:15:51;17.07;;;8.97;;
19171;SDS011;9718;52.200;21.052;2023-03-11T09:18:19;15.70;;;9.10;;
19171;SDS011;9718;52.200;21.052;2023-03-11T09:20:46;14.33;;;9.33;;
19171;SDS011;9718;52.200;21.052;2023-03-11T09:23:14;16.20;;;9.07;;
19171;SDS011;9718;52.200;21.052;2023-03-11T09:25:43;17.53;;;10.17;;
19171;SDS011;9718;52.200;21.052;2023-03-11T09:28:10;17.00;;;10.20;;
19171;SDS011;9718;52.200;21.052;2023-03-11T09:30:38;19.93;;;12.10;;
19171;SDS011;9718;52.200;21.052;2023-03-11T09:33:05;19.67;;;10.03;;
19171;SDS011;9718;52.200;21.052;2023-03-11T09:35:32;17.60;;;10.33;;
19171;SDS011;9718;52.200;21.052;2023-03-11T09:38:00;17.93;;;10.70;;
19171;SDS011;9718;52.200;21.052;2023-03-11T09:40:27;21.10;;;10.93;;
19171;SDS011;9718;52.200;21.052;2023-03-11T09:43:42;18.97;;;12.63;;
19171;SDS011;9718;52.200;21.052;2023-03-11T09:52:08;23.00;;;12.57;;
19171;SDS011;9718;52.200;21.052;2023-03-11T09:54:41;22.97;;;13.03;;
19171;SDS011;9718;52.200;21.052;2023-03-11T09:57:21;27.73;;;13.33;;
19171;SDS011;9718;52.200;21.052;2023-03-11T09:59:59;25.60;;;12.87;;
19171;SDS011;9718;52.200;21.052;2023-03-11T10:02:29;25.97;;;13.00;;
19171;SDS011;9718;52.200;21.052;2023-03-11T10:05:00;24.17;;;12.40;;
19171;SDS011;9718;52.200;21.052;2023-03-11T10:07:36;25.17;;;14.17;;
19171;SDS011;9718;52.200;21.052;2023-03-11T10:10:10;29.10;;;14.87;;
19171;SDS011;9718;52.200;21.052;2023-03-11T10:12:42;38.00;;;19.43;;
19171;SDS011;9718;52.200;21.052;2023-03-11T10:21:37;32.20;;;13.83;;
19171;SDS011;9718;52.200;21.052;2023-03-11T10:27:52;20.43;;;9.53;;
19171;SDS011;9718;52.200;21.052;2023-03-11T10:30:30;20.57;;;10.13;;
19171;SDS011;9718;52.200;21.052;2023-03-11T10:33:07;19.37;;;9.90;;
19171;SDS011;9718;52.200;21.052;2023-03-11T10:35:40;18.77;;;10.73;;
19171;SDS011;9718;52.200;21.052;2023-03-11T10:38:16;17.97;;;9.67;;
19171;SDS011;9718;52.200;21.052;2023-03-11T10:40:45;19.10;;;14.27;;
19171;SDS011;9718;52.200;21.052;2023-03-11T10:43:18;16.47;;;10.10;;
19171;SDS011;9718;52.200;21.052;2023-03-11T10:45:58;13.37;;;7.47;;
19171;SDS011;9718;52.200;21.052;2023-03-11T10:48:25;12.77;;;9.20;;
19171;SDS011;9718;52.200;21.052;2023-03-11T10:53:54;14.07;;;10.77;;
19171;SDS011;9718;52.200;21.052;2023-03-11T10:56:25;12.00;;;8.60;;
19171;SDS011;9718;52.200;21.052;2023-03-11T10:59:30;12.17;;;9.63;;
19171;SDS011;9718;52.200;21.052;2023-03-11T11:01:54;13.17;;;9.10;;
19171;SDS011;9718;52.200;21.052;2023-03-11T11:04:36;12.33;;;7.70;;
19171;SDS011;9718;52.200;21.052;2023-03-11T11:07:18;15.50;;;8.10;;
19171;SDS011;9718;52.200;21.052;2023-03-11T11:09:46;13.00;;;8.10;;
19171;SDS011;9718;52.200;21.052;2023-03-11T11:13:00;13.93;;;7.40;;
19171;SDS011;9718;52.200;21.052;2023-03-11T11:23:40;12.77;;;6.23;;
19171;SDS011;9718;52.200;21.052;2023-03-11T11:26:22;10.57;;;6.27;;
19171;SDS011;9718;52.200;21.052;2023-03-11T11:31:41;10.03;;;5.83;;
19171;SDS011;9718;52.200;21.052;2023-03-11T11:34:23;9.37;;;5.70;;
19171;SDS011;9718;52.200;21.052;2023-03-11T11:36:57;7.70;;;4.63;;
19171;SDS011;9718;52.200;21.052;2023-03-11T11:39:26;9.33;;;4.13;;
19171;SDS011;9718;52.200;21.052;2023-03-11T11:41:57;6.37;;;3.97;;
19171;SDS011;9718;52.200;21.052;2023-03-11T11:44:29;5.47;;;4.07;;
19171;SDS011;9718;52.200;21.052;2023-03-11T11:49:51;6.47;;;4.13;;
19171;SDS011;9718;52.200;21.052;2023-03-11T11:52:32;5.20;;;3.97;;
19171;SDS011;9718;52.200;21.052;2023-03-11T11:55:04;6.43;;;5.87;;
19171;SDS011;9718;52.200;21.052;2023-03-11T11:57:38;6.90;;;6.40;;
19171;SDS011;9718;52.200;21.052;2023-03-11T12:00:13;7.37;;;6.60;;
19171;SDS011;9718;52.200;21.052;2023-03-11T12:02:52;8.50;;;6.53;;
19171;SDS011;9718;52.200;21.052;2023-03-11T12:11:16;8.67;;;7.43;;
19171;SDS011;9718;52.200;21.052;2023-03-11T12:13:56;8.53;;;6.53;;
19171;SDS011;9718;52.200;21.052;2023-03-11T12:19:43;11.00;;;6.30;;
19171;SDS011;9718;52.200;21.052;2023-03-11T12:25:15;8.23;;;6.53;;
19171;SDS011;9718;52.200;21.052;2023-03-11T12:30:49;7.30;;;5.83;;
19171;SDS011;9718;52.200;21.052;2023-03-11T12:35:59;10.73;;;8.60;;
19171;SDS011;9718;52.200;21.052;2023-03-11T12:38:31;10.90;;;8.53;;
19171;SDS011;9718;52.200;21.052;2023-03-11T12:46:10;10.07;;;6.30;;
19171;SDS011;9718;52.200;21.052;2023-03-11T12:48:57;12.23;;;7.53;;
19171;SDS011;9718;52.200;21.052;2023-03-11T12:56:59;10.80;;;7.73;;
19171;SDS011;9718;52.200;21.052;2023-03-11T13:05:49;10.17;;;5.23;;
19171;SDS011;9718;52.200;21.052;2023-03-11T13:16:45;10.47;;;5.60;;
19171;SDS011;9718;52.200;21.052;2023-03-11T13:21:52;9.27;;;5.80;;
19171;SDS011;9718;52.200;21.052;2023-03-11T13:24:38;8.97;;;5.67;;
19171;SDS011;9718;52.200;21.052;2023-03-11T13:27:16;8.17;;;5.67;;
19171;SDS011;9718;52.200;21.052;2023-03-11T13:29:55;9.07;;;5.27;;
19171;SDS011;9718;52.200;21.052;2023-03-11T13:40:59;8.30;;;5.47;;
19171;SDS011;9718;52.200;21.052;2023-03-11T13:43:28;11.60;;;6.73;;
19171;SDS011;9718;52.200;21.052;2023-03-11T13:46:00;9.23;;;5.13;;
19171;SDS011;9718;52.200;21.052;2023-03-11T13:48:31;10.40;;;6.50;;
19171;SDS011;9718;52.200;21.052;2023-03-11T13:54:04;11.63;;;6.77;;
19171;SDS011;9718;52.200;21.052;2023-03-11T13:56:36;10.60;;;6.20;;
19171;SDS011;9718;52.200;21.052;2023-03-11T13:59:16;10.40;;;6.07;;
19171;SDS011;9718;52.200;21.052;2023-03-11T14:01:51;12.10;;;6.10;;
19171;SDS011;9718;52.200;21.052;2023-03-11T14:04:39;8.03;;;4.47;;
19171;SDS011;9718;52.200;21.052;2023-03-11T14:07:21;13.23;;;7.40;;
19171;SDS011;9718;52.200;21.052;2023-03-11T14:10:08;10.77;;;5.73;;
19171;SDS011;9718;52.200;21.052;2023-03-11T14:12:49;12.83;;;6.40;;
19171;SDS011;9718;52.200;21.052;2023-03-11T14:15:23;12.63;;;6.13;;
19171;SDS011;9718;52.200;21.052;2023-03-11T14:17:52;12.27;;;5.50;;
19171;SDS011;9718;52.200;21.052;2023-03-11T14:20:40;13.60;;;7.27;;
19171;SDS011;9718;52.200;21.052;2023-03-11T14:23:11;11.60;;;5.90;;
19171;SDS011;9718;52.200;21.052;2023-03-11T14:25:44;11.53;;;6.97;;
19171;SDS011;9718;52.200;21.052;2023-03-11T14:28:13;8.07;;;4.37;;
19171;SDS011;9718;52.200;21.052;2023-03-11T14:31:18;7.50;;;4.47;;
19171;SDS011;9718;52.200;21.052;2023-03-11T14:33:33;7.80;;;4.33;;
19171;SDS011;9718;52.200;21.052;2023-03-11T14:36:01;8.20;;;4.80;;
19171;SDS011;9718;52.200;21.052;2023-03-11T14:38:30;7.33;;;4.87;;
19171;SDS011;9718;52.200;21.052;2023-03-11T14:40:59;11.40;;;4.93;;
19171;SDS011;9718;52.200;21.052;2023-03-11T14:43:32;9.87;;;5.57;;
19171;SDS011;9718;52.200;21.052;2023-03-11T14:46:03;11.67;;;6.90;;
19171;SDS011;9718;52.200;21.052;2023-03-11T14:48:36;12.63;;;6.20;;
19171;SDS011;9718;52.200;21.052;2023-03-11T14:51:09;7.93;;;4.47;;
19171;SDS011;9718;52.200;21.052;2023-03-11T14:56:35;8.20;;;4.13;;
19171;SDS011;9718;52.200;21.052;2023-03-11T14:59:07;10.83;;;4.57;;
19171;SDS011;9718;52.200;21.052;2023-03-11T15:01:39;8.87;;;3.90;;
19171;SDS011;9718;52.200;21.052;2023-03-11T15:04:13;7.47;;;4.33;;
19171;SDS011;9718;52.200;21.052;2023-03-11T15:07:01;7.93;;;4.33;;
19171;SDS011;9718;52.200;21.052;2023-03-11T15:09:30;7.97;;;3.90;;
19171;SDS011;9718;52.200;21.052;2023-03-11T15:11:58;6.07;;;3.57;;
19171;SDS011;9718;52.200;21.052;2023-03-11T15:14:28;7.43;;;2.97;;
19171;SDS011;9718;52.200;21.052;2023-03-11T15:17:17;5.63;;;3.63;;
19171;SDS011;9718;52.200;21.052;2023-03-11T15:20:20;5.83;;;3.03;;
19171;SDS011;9718;52.200;21.052;2023-03-11T15:22:53;5.07;;;2.90;;
19171;SDS011;9718;52.200;21.052;2023-03-11T15:25:23;6.77;;;3.97;;
19171;SDS011;9718;52.200;21.052;2023-03-11T15:27:51;8.43;;;3.63;;
19171;SDS011;9718;52.200;21.052;2023-03-11T15:30:19;6.27;;;3.20;;
19171;SDS011;9718;52.200;21.052;2023-03-11T15:32:47;7.03;;;3.23;;
19171;SDS011;9718;52.200;21.052;2023-03-11T15:35:21;5.80;;;3.40;;
19171;SDS011;9718;52.200;21.052;2023-03-11T15:40:51;8.13;;;4.10;;
19171;SDS011;9718;52.200;21.052;2023-03-11T15:43:23;10.53;;;3.50;;
19171;SDS011;9718;52.200;21.052;2023-03-11T15:45:56;7.53;;;3.83;;
19171;SDS011;9718;52.200;21.052;2023-03-11T15:48:26;6.63;;;3.40;;
19171;SDS011;9718;52.200;21.052;2023-03-11T15:50:56;5.43;;;2.17;;
19171;SDS011;9718;52.200;21.052;2023-03-11T15:53:25;5.97;;;3.07;;
19171;SDS011;9718;52.200;21.052;2023-03-11T15:55:55;5.10;;;2.67;;
19171;SDS011;9718;52.200;21.052;2023-03-11T15:58:33;5.97;;;3.10;;
19171;SDS011;9718;52.200;21.052;2023-03-11T16:01:02;5.40;;;3.13;;
19171;SDS011;9718;52.200;21.052;2023-03-11T16:03:32;8.27;;;2.93;;
19171;SDS011;9718;52.200;21.052;2023-03-11T16:05:59;6.50;;;3.03;;
19171;SDS011;9718;52.200;21.052;2023-03-11T16:08:26;6.70;;;3.50;;
19171;SDS011;9718;52.200;21.052;2023-03-11T16:10:53;7.17;;;4.53;;
19171;SDS011;9718;52.200;21.052;2023-03-11T16:13:21;5.47;;;3.87;;
19171;SDS011;9718;52.200;21.052;2023-03-11T16:15:47;7.20;;;3.23;;
19171;SDS011;9718;52.200;21.052;2023-03-11T16:18:15;4.80;;;2.80;;
19171;SDS011;9718;52.200;21.052;2023-03-11T16:20:46;6.40;;;2.87;;
19171;SDS011;9718;52.200;21.052;2023-03-11T16:23:22;4.87;;;2.10;;
19171;SDS011;9718;52.200;21.052;2023-03-11T16:25:56;6.37;;;3.00;;
19171;SDS011;9718;52.200;21.052;2023-03-11T16:28:25;7.83;;;3.20;;
19171;SDS011;9718;52.200;21.052;2023-03-11T16:30:52;6.10;;;3.37;;
19171;SDS011;9718;52.200;21.052;2023-03-11T16:33:19;4.30;;;2.60;;